Terminal Aerodrome Forecast
Issued by NWS Cleveland, OH

Home | Current Version | Previous Version | Graphics & Text | Print | Product List | Glossary On
Versions: 1 2 3 4 5 6 7 8 9 10 11 12 13 14 15 16 17 18 19 20 21 22 23 24 25 26 27
746
FTUS41 KCLE 211730
TAFCLE
TAF
KCLE 211730Z 2118/2224 25012KT P6SM SCT050 BKN250
     FM220100 22010KT P6SM VCTS SCT020 BKN035CB OVC080
     FM220400 22010KT P6SM SCT035 BKN080
     FM221200 20006KT P6SM VCSH BKN040=

USA.gov is the U.S. government's official web portal to all federal, state and local government web resources and services.